createdAt,value
2019-05-13T00:00:05.536Z,913.96
2019-05-13T00:01:07.147Z,914.00
2019-05-13T00:02:05.495Z,913.98
2019-05-13T00:03:05.423Z,913.99
2019-05-13T00:04:05.395Z,913.96
2019-05-13T00:05:05.620Z,913.95
2019-05-13T00:06:05.470Z,914.00
2019-05-13T00:07:05.559Z,914.04
2019-05-13T00:08:05.329Z,914.09
2019-05-13T00:09:05.259Z,914.07
2019-05-13T00:10:05.228Z,914.08
2019-05-13T00:11:05.210Z,914.03
2019-05-13T00:12:05.171Z,914.13
2019-05-13T00:13:05.150Z,914.14
2019-05-13T00:14:05.130Z,914.13
2019-05-13T00:15:05.069Z,914.13
2019-05-13T00:16:05.080Z,914.14
2019-05-13T00:17:04.992Z,914.17
2019-05-13T00:18:04.970Z,914.14
2019-05-13T00:19:04.959Z,914.16
2019-05-13T00:20:04.896Z,914.13
2019-05-13T00:21:06.148Z,914.12
2019-05-13T00:22:04.828Z,914.16
2019-05-13T00:23:04.819Z,914.17
2019-05-13T00:24:04.764Z,914.18
2019-05-13T00:25:04.908Z,914.20
2019-05-13T00:26:04.732Z,914.17
2019-05-13T00:27:04.690Z,914.20
2019-05-13T00:28:04.870Z,914.19
2019-05-13T00:29:04.588Z,914.23
2019-05-13T00:30:04.602Z,914.25
2019-05-13T00:31:04.735Z,914.24
2019-05-13T00:32:04.907Z,914.24
2019-05-13T00:33:04.447Z,914.24
2019-05-13T00:34:04.453Z,914.23
2019-05-13T00:35:04.367Z,914.20
2019-05-13T00:36:04.378Z,914.22
2019-05-13T00:37:10.795Z,914.25
2019-05-13T00:38:04.296Z,914.21
2019-05-13T00:39:04.262Z,914.22
2019-05-13T00:40:04.248Z,914.20
2019-05-13T00:41:04.192Z,914.17
2019-05-13T00:42:09.621Z,914.17
2019-05-13T00:43:04.186Z,914.23
2019-05-13T00:44:04.088Z,914.22
2019-05-13T00:45:04.147Z,914.23
2019-05-13T00:46:04.138Z,914.21
2019-05-13T00:47:04.416Z,914.22
2019-05-13T00:48:04.757Z,914.25
2019-05-13T00:49:04.732Z,914.24
2019-05-13T00:50:03.849Z,914.22
2019-05-13T00:51:03.997Z,914.26
2019-05-13T00:52:04.018Z,914.29
2019-05-13T00:53:04.326Z,914.29
2019-05-13T00:54:04.374Z,914.29
2019-05-13T00:55:04.222Z,914.28
2019-05-13T00:56:04.059Z,914.27
2019-05-13T00:57:04.106Z,914.28
2019-05-13T00:58:04.249Z,914.29
2019-05-13T00:59:03.826Z,914.31
2019-05-13T01:00:03.675Z,914.31
2019-05-13T01:01:03.736Z,914.33
2019-05-13T01:02:03.783Z,914.32
2019-05-13T01:03:04.136Z,914.31
2019-05-13T01:04:03.918Z,914.31
2019-05-13T01:05:04.285Z,914.33
2019-05-13T01:06:04.315Z,914.31
2019-05-13T01:07:04.460Z,914.34
2019-05-13T01:08:04.338Z,914.32
2019-05-13T01:09:04.136Z,914.32
2019-05-13T01:10:04.193Z,914.31
2019-05-13T01:11:04.304Z,914.29
2019-05-13T01:12:04.392Z,914.28
2019-05-13T01:13:04.696Z,914.28
2019-05-13T01:14:04.293Z,914.28
2019-05-13T01:15:04.118Z,914.25
2019-05-13T01:16:03.717Z,914.27
2019-05-13T01:17:03.879Z,914.28
2019-05-13T01:18:03.944Z,914.29
2019-05-13T01:19:04.234Z,914.29
2019-05-13T01:20:04.151Z,914.27
2019-05-13T01:22:03.453Z,914.26
2019-05-13T01:23:03.661Z,914.30
2019-05-13T01:24:03.768Z,914.28
2019-05-13T01:25:03.923Z,914.30
2019-05-13T01:26:03.921Z,914.28
2019-05-13T01:27:03.988Z,914.31
2019-05-13T01:28:04.543Z,914.30
2019-05-13T01:29:04.218Z,914.33
2019-05-13T01:30:04.204Z,914.36
2019-05-13T01:31:04.187Z,914.39
2019-05-13T01:32:04.287Z,914.40
2019-05-13T01:33:04.432Z,914.44
2019-05-13T01:34:04.039Z,914.43
2019-05-13T01:35:04.452Z,914.43
2019-05-13T01:36:05.009Z,914.43
2019-05-13T01:37:04.282Z,914.44
2019-05-13T01:38:04.260Z,914.45
2019-05-13T01:39:04.165Z,914.40
2019-05-13T01:40:04.922Z,914.41
2019-05-13T01:41:04.241Z,914.40
2019-05-13T01:42:03.730Z,914.44
2019-05-13T01:43:03.620Z,914.44
2019-05-13T01:44:03.980Z,914.43
2019-05-13T01:45:04.501Z,914.43
2019-05-13T01:46:04.217Z,914.42
2019-05-13T01:47:04.275Z,914.43
2019-05-13T01:48:06.301Z,914.47
2019-05-13T01:49:01.878Z,914.46
2019-05-13T01:50:04.056Z,914.46
2019-05-13T01:51:03.830Z,914.44
2019-05-13T01:52:03.893Z,914.45
2019-05-13T01:53:03.845Z,914.44
2019-05-13T01:54:03.943Z,914.42
2019-05-13T01:55:03.847Z,914.39
2019-05-13T01:56:03.646Z,914.39
2019-05-13T01:57:04.097Z,914.39
2019-05-13T01:58:03.885Z,914.41
2019-05-13T01:59:03.397Z,914.40
2019-05-13T02:00:01.494Z,914.38
2019-05-13T02:01:01.669Z,914.38
2019-05-13T02:02:03.225Z,914.39
2019-05-13T02:03:03.637Z,914.43
2019-05-13T02:04:03.697Z,914.41
2019-05-13T02:05:03.766Z,914.41
2019-05-13T02:06:03.806Z,914.43
2019-05-13T02:07:03.810Z,914.43
2019-05-13T02:08:04.033Z,914.42
2019-05-13T02:09:03.791Z,914.43
2019-05-13T02:10:01.226Z,914.39
2019-05-13T02:11:01.194Z,914.42
2019-05-13T02:12:04.889Z,914.43
2019-05-13T02:13:01.084Z,914.43
2019-05-13T02:14:01.060Z,914.43
2019-05-13T02:15:04.218Z,914.42
2019-05-13T02:16:01.065Z,914.43
2019-05-13T02:17:01.128Z,914.45
2019-05-13T02:18:01.066Z,914.45
2019-05-13T02:19:03.660Z,914.45
2019-05-13T02:20:03.688Z,914.44
2019-05-13T02:21:04.863Z,914.45
2019-05-13T02:22:03.684Z,914.43
2019-05-13T02:23:00.860Z,914.47
2019-05-13T02:24:01.049Z,914.47
2019-05-13T02:25:00.642Z,914.43
2019-05-13T02:26:00.614Z,914.41
2019-05-13T02:27:00.549Z,914.44
2019-05-13T02:28:00.539Z,914.47
2019-05-13T02:29:00.508Z,914.47
2019-05-13T02:30:00.605Z,914.45
2019-05-13T02:31:00.438Z,914.47
2019-05-13T02:32:02.780Z,914.43
2019-05-13T02:33:02.877Z,914.47
2019-05-13T02:34:02.460Z,914.48
2019-05-13T02:35:02.740Z,914.45
2019-05-13T02:36:02.969Z,914.45
2019-05-13T02:37:03.003Z,914.45
2019-05-13T02:38:18.517Z,914.45
2019-05-13T02:39:02.577Z,914.47
2019-05-13T02:40:03.667Z,914.48
2019-05-13T02:41:02.579Z,914.45
2019-05-13T02:42:02.979Z,914.46
2019-05-13T02:43:02.950Z,914.44
2019-05-13T02:44:03.204Z,914.43
2019-05-13T02:45:03.437Z,914.45
2019-05-13T02:46:03.756Z,914.43
2019-05-13T02:47:02.926Z,914.43
2019-05-13T02:48:02.404Z,914.46
2019-05-13T02:49:02.948Z,914.46
2019-05-13T02:50:03.933Z,914.42
2019-05-13T02:51:03.332Z,914.45
2019-05-13T02:52:02.803Z,914.45
2019-05-13T02:53:02.421Z,914.44
2019-05-13T02:54:03.251Z,914.50
2019-05-13T02:55:03.602Z,914.45
2019-05-13T02:56:02.635Z,914.46
2019-05-13T02:57:03.276Z,914.46
2019-05-13T02:57:59.494Z,914.44
2019-05-13T02:58:59.465Z,914.47
2019-05-13T03:00:03.665Z,914.46
2019-05-13T03:01:02.819Z,914.46
2019-05-13T03:01:59.344Z,914.45
2019-05-13T03:03:02.901Z,914.47
2019-05-13T03:05:02.817Z,914.42
2019-05-13T03:06:02.565Z,914.46
2019-05-13T03:06:59.200Z,914.48
2019-05-13T03:07:59.158Z,914.46
2019-05-13T03:08:59.126Z,914.44
2019-05-13T03:09:59.081Z,914.45
2019-05-13T03:10:59.068Z,914.46
2019-05-13T03:11:59.017Z,914.49
2019-05-13T03:12:58.967Z,914.47
2019-05-13T03:15:02.449Z,914.45
2019-05-13T03:16:02.528Z,914.43
2019-05-13T03:16:58.849Z,914.46
2019-05-13T03:17:58.817Z,914.46
2019-05-13T03:18:58.765Z,914.43
2019-05-13T03:19:58.731Z,914.46
2019-05-13T03:20:58.719Z,914.48
2019-05-13T03:21:58.683Z,914.46
2019-05-13T03:22:58.621Z,914.44
2019-05-13T03:23:58.611Z,914.45
2019-05-13T03:24:58.718Z,914.43
2019-05-13T03:25:58.569Z,914.44
2019-05-13T03:26:58.501Z,914.46
2019-05-13T03:27:58.454Z,914.42
2019-05-13T03:28:58.436Z,914.41
2019-05-13T03:29:58.412Z,914.42
2019-05-13T03:30:58.383Z,914.41
2019-05-13T03:31:58.345Z,914.38
2019-05-13T03:33:02.068Z,914.36
2019-05-13T03:33:58.325Z,914.38
2019-05-13T03:34:58.246Z,914.35
2019-05-13T03:35:58.344Z,914.31
2019-05-13T03:36:58.328Z,914.32
2019-05-13T03:37:58.154Z,914.34
2019-05-13T03:39:05.726Z,914.33
2019-05-13T03:39:58.053Z,914.35
2019-05-13T03:40:58.026Z,914.34
2019-05-13T03:41:57.982Z,914.32
2019-05-13T03:42:57.945Z,914.35
2019-05-13T03:43:57.897Z,914.29
2019-05-13T03:44:57.867Z,914.27
2019-05-13T03:45:57.888Z,914.29
2019-05-13T03:46:57.822Z,914.27
2019-05-13T03:47:57.777Z,914.28
2019-05-13T03:48:57.720Z,914.26
2019-05-13T03:49:57.698Z,914.23
2019-05-13T03:50:57.685Z,914.25
2019-05-13T03:51:57.642Z,914.20
2019-05-13T03:52:57.740Z,914.24
2019-05-13T03:53:57.554Z,914.21
2019-05-13T03:54:57.533Z,914.18
2019-05-13T03:55:57.482Z,914.22
2019-05-13T03:56:57.495Z,914.18
2019-05-13T03:57:57.428Z,914.18
2019-05-13T03:58:57.380Z,914.16
2019-05-13T03:59:57.369Z,914.16
2019-05-13T04:00:57.308Z,914.15
2019-05-13T04:01:57.301Z,914.15
2019-05-13T04:02:57.261Z,914.17
2019-05-13T04:03:57.224Z,914.17
2019-05-13T04:04:59.280Z,914.17
2019-05-13T04:05:57.139Z,914.15
2019-05-13T04:06:57.098Z,914.13
2019-05-13T04:07:57.090Z,914.10
2019-05-13T04:09:17.166Z,914.09
2019-05-13T04:09:57.167Z,914.09
2019-05-13T04:10:56.997Z,914.10
2019-05-13T04:11:56.925Z,914.13
2019-05-13T04:12:56.892Z,914.15
2019-05-13T04:13:56.881Z,914.11
2019-05-13T04:14:56.846Z,914.09
2019-05-13T04:15:56.857Z,914.10
2019-05-13T04:16:56.776Z,914.12
2019-05-13T04:17:56.727Z,914.11
2019-05-13T04:18:56.686Z,914.13
2019-05-13T04:19:56.688Z,914.13
2019-05-13T04:21:02.407Z,914.11
2019-05-13T04:21:56.603Z,914.11
2019-05-13T04:22:56.550Z,914.12
2019-05-13T04:23:56.505Z,914.09
2019-05-13T04:24:56.499Z,914.14
2019-05-13T04:25:56.448Z,914.08
2019-05-13T04:26:56.477Z,914.09
2019-05-13T04:27:56.391Z,914.05
2019-05-13T04:28:56.331Z,914.07
2019-05-13T04:29:56.320Z,914.09
2019-05-13T04:30:56.293Z,914.07
2019-05-13T04:31:56.240Z,914.07
2019-05-13T04:32:56.216Z,914.10
2019-05-13T04:33:56.201Z,914.04
2019-05-13T04:34:56.145Z,914.03
2019-05-13T04:35:56.093Z,914.05
2019-05-13T04:36:56.077Z,914.03
2019-05-13T04:37:57.674Z,914.04
2019-05-13T04:38:56.011Z,914.05
2019-05-13T04:39:56.705Z,914.05
2019-05-13T04:40:55.914Z,914.04
2019-05-13T04:41:55.893Z,914.02
2019-05-13T04:42:55.878Z,914.00
2019-05-13T04:43:55.988Z,914.00
2019-05-13T04:44:55.785Z,913.99
2019-05-13T04:45:55.738Z,914.00
2019-05-13T04:46:55.739Z,913.97
2019-05-13T04:47:55.680Z,914.00
2019-05-13T04:48:55.635Z,913.93
2019-05-13T04:49:55.619Z,913.94
2019-05-13T04:50:55.585Z,913.95
2019-05-13T04:51:55.533Z,913.98
2019-05-13T04:52:55.513Z,913.98
2019-05-13T04:53:57.244Z,913.96
2019-05-13T04:54:55.428Z,913.95
2019-05-13T04:55:55.389Z,913.96
2019-05-13T04:56:55.383Z,913.99
2019-05-13T04:57:55.341Z,913.99
2019-05-13T04:58:55.308Z,914.01
2019-05-13T04:59:55.366Z,914.02
2019-05-13T05:01:02.734Z,914.00
2019-05-13T05:01:59.517Z,914.01
2019-05-13T05:02:55.585Z,914.00
2019-05-13T05:03:55.134Z,914.00
2019-05-13T05:04:55.099Z,914.02
2019-05-13T05:05:55.045Z,913.98
2019-05-13T05:06:55.028Z,913.96
2019-05-13T05:07:54.996Z,913.98
2019-05-13T05:08:54.957Z,913.94
2019-05-13T05:10:54.891Z,913.92
2019-05-13T05:11:56.511Z,913.96
2019-05-13T05:12:54.798Z,913.93
2019-05-13T05:13:56.733Z,913.94
2019-05-13T05:14:54.771Z,913.91
2019-05-13T05:15:54.724Z,913.92
2019-05-13T05:16:54.659Z,913.92
2019-05-13T05:17:54.894Z,913.88
2019-05-13T05:18:54.610Z,913.90
2019-05-13T05:19:54.585Z,913.88
2019-05-13T05:20:54.519Z,913.91
2019-05-13T05:21:55.477Z,913.89
2019-05-13T05:22:54.467Z,913.87
2019-05-13T05:23:56.199Z,913.91
2019-05-13T05:24:54.397Z,913.88
2019-05-13T05:25:54.362Z,913.88
2019-05-13T05:26:54.315Z,913.91
2019-05-13T05:27:54.276Z,913.89
2019-05-13T05:28:54.258Z,913.83
2019-05-13T05:29:54.953Z,913.82
2019-05-13T05:30:54.191Z,913.86
2019-05-13T05:31:54.153Z,913.86
2019-05-13T05:32:54.129Z,913.87
2019-05-13T05:33:54.070Z,913.85
2019-05-13T05:34:54.030Z,913.84
2019-05-13T05:35:53.991Z,913.83
2019-05-13T05:36:53.958Z,913.89
2019-05-13T05:37:53.923Z,913.88
2019-05-13T05:38:53.906Z,913.87
2019-05-13T05:39:53.872Z,913.85
2019-05-13T05:40:53.817Z,913.86
2019-05-13T05:41:53.806Z,913.88
2019-05-13T05:42:53.762Z,913.92
2019-05-13T05:43:53.731Z,913.94
2019-05-13T05:44:53.680Z,913.92
2019-05-13T05:45:53.845Z,913.96
2019-05-13T05:46:53.615Z,913.96
2019-05-13T05:47:53.573Z,913.96
2019-05-13T05:48:53.533Z,913.97
2019-05-13T05:49:53.505Z,913.98
2019-05-13T05:50:53.487Z,913.95
2019-05-13T05:51:53.603Z,913.99
2019-05-13T05:52:53.387Z,913.99
2019-05-13T05:53:53.385Z,913.98
2019-05-13T05:54:53.339Z,914.01
2019-05-13T05:55:54.788Z,914.02
2019-05-13T05:56:53.295Z,914.01
2019-05-13T05:57:53.229Z,914.00
2019-05-13T05:58:53.198Z,913.99
2019-05-13T05:59:53.147Z,914.01
2019-05-13T06:00:53.135Z,914.01
2019-05-13T06:01:53.074Z,913.98
2019-05-13T06:02:53.361Z,914.01
2019-05-13T06:03:53.011Z,914.00
2019-05-13T06:04:52.985Z,913.97
2019-05-13T06:05:52.934Z,913.98
2019-05-13T06:06:52.898Z,913.94
2019-05-13T06:07:52.869Z,913.97
2019-05-13T06:08:52.830Z,913.94
2019-05-13T06:09:52.810Z,913.92
2019-05-13T06:10:53.826Z,913.96
2019-05-13T06:11:52.749Z,913.94
2019-05-13T06:12:52.844Z,913.97
2019-05-13T06:13:54.685Z,913.95
2019-05-13T06:14:52.658Z,913.95
2019-05-13T06:15:52.673Z,913.95
2019-05-13T06:16:52.563Z,913.95
2019-05-13T06:17:52.518Z,913.95
2019-05-13T06:18:52.809Z,913.94
2019-05-13T06:19:52.442Z,913.98
2019-05-13T06:20:52.410Z,913.95
2019-05-13T06:21:52.395Z,913.96
2019-05-13T06:22:52.342Z,913.98
2019-05-13T06:23:52.351Z,913.98
2019-05-13T06:24:52.350Z,914.01
2019-05-13T06:25:52.827Z,914.01
2019-05-13T06:26:52.197Z,914.02
2019-05-13T06:27:52.162Z,913.98
2019-05-13T06:29:52.925Z,913.98
2019-05-13T06:30:52.181Z,913.97
2019-05-13T06:31:52.093Z,913.99
2019-05-13T06:32:52.517Z,913.97
2019-05-13T06:33:51.972Z,914.00
2019-05-13T06:34:52.615Z,913.97
2019-05-13T06:35:52.208Z,913.97
2019-05-13T06:36:52.328Z,913.99
2019-05-13T06:37:52.118Z,914.00
2019-05-13T06:38:51.789Z,914.00
2019-05-13T06:39:52.643Z,914.04
2019-05-13T06:41:00.474Z,914.03
2019-05-13T06:41:51.885Z,914.02
2019-05-13T06:42:52.147Z,914.05
2019-05-13T06:43:52.431Z,914.05
2019-05-13T06:44:51.597Z,914.06
2019-05-13T06:45:51.685Z,914.04
2019-05-13T06:46:51.791Z,914.10
2019-05-13T06:47:52.179Z,914.10
2019-05-13T06:48:52.087Z,914.06
2019-05-13T06:49:51.599Z,914.08
2019-05-13T06:50:52.113Z,914.06
2019-05-13T06:51:52.684Z,914.10
2019-05-13T06:52:51.492Z,914.04
2019-05-13T06:53:51.762Z,914.07
2019-05-13T06:54:51.990Z,914.05
2019-05-13T06:55:52.275Z,914.08
2019-05-13T06:56:51.768Z,914.03
2019-05-13T06:57:51.723Z,914.06
2019-05-13T06:58:51.971Z,914.02
2019-05-13T06:59:52.322Z,914.02
2019-05-13T07:00:51.609Z,914.05
2019-05-13T07:01:51.405Z,914.04
2019-05-13T07:02:51.745Z,914.04
2019-05-13T07:03:51.805Z,914.00
2019-05-13T07:04:51.676Z,914.02
2019-05-13T07:05:52.482Z,914.00
2019-05-13T07:06:56.055Z,914.01
2019-05-13T07:07:56.018Z,914.03
2019-05-13T07:08:52.117Z,914.02
2019-05-13T07:09:51.672Z,914.02
2019-05-13T07:10:51.524Z,914.03
2019-05-13T07:11:51.841Z,914.04
2019-05-13T07:12:51.923Z,914.05
2019-05-13T07:13:51.607Z,914.05
2019-05-13T07:14:51.858Z,914.05
2019-05-13T07:15:52.180Z,914.05
2019-05-13T07:16:52.365Z,914.04
2019-05-13T07:17:51.969Z,914.06
2019-05-13T07:18:52.245Z,914.06
2019-05-13T07:19:51.730Z,914.09
2019-05-13T07:20:52.821Z,914.11
2019-05-13T07:21:52.052Z,914.06
2019-05-13T07:22:52.970Z,914.10
2019-05-13T07:23:54.471Z,914.07
2019-05-13T07:24:51.922Z,914.11
2019-05-13T07:25:52.261Z,914.13
2019-05-13T07:26:52.163Z,914.13
2019-05-13T07:27:51.501Z,914.12
2019-05-13T07:28:52.401Z,914.11
2019-05-13T07:29:51.492Z,914.11
2019-05-13T07:30:51.626Z,914.13
2019-05-13T07:31:51.947Z,914.15
2019-05-13T07:32:52.263Z,914.11
2019-05-13T07:33:51.722Z,914.15
2019-05-13T07:34:52.880Z,914.18
2019-05-13T07:35:57.173Z,914.14
2019-05-13T07:36:51.314Z,914.15
2019-05-13T07:37:51.641Z,914.19
2019-05-13T07:38:51.937Z,914.17
2019-05-13T07:39:49.610Z,914.14
2019-05-13T07:40:52.003Z,914.12
2019-05-13T07:41:51.885Z,914.12
2019-05-13T07:42:49.526Z,914.13
2019-05-13T07:43:51.600Z,914.16
2019-05-13T07:44:51.910Z,914.16
2019-05-13T07:45:51.334Z,914.15
2019-05-13T07:46:52.082Z,914.14
2019-05-13T07:47:51.894Z,914.14
2019-05-13T07:48:51.887Z,914.16
2019-05-13T07:49:51.379Z,914.17
2019-05-13T07:50:59.100Z,914.18
2019-05-13T07:51:49.215Z,914.13
2019-05-13T07:52:51.343Z,914.16
2019-05-13T07:53:51.484Z,914.16
2019-05-13T07:54:49.160Z,914.17
2019-05-13T07:55:49.045Z,914.14
2019-05-13T07:56:49.018Z,914.16
2019-05-13T07:57:51.385Z,914.18
2019-05-13T07:58:48.969Z,914.18
2019-05-13T07:59:48.901Z,914.19
2019-05-13T08:00:48.869Z,914.22
2019-05-13T08:01:48.827Z,914.23
2019-05-13T08:02:48.794Z,914.25
2019-05-13T08:03:48.767Z,914.25
2019-05-13T08:04:49.502Z,914.28
2019-05-13T08:05:51.093Z,914.26
2019-05-13T08:06:48.647Z,914.31
2019-05-13T08:07:48.613Z,914.34
2019-05-13T08:08:48.582Z,914.32
2019-05-13T08:09:48.542Z,914.35
2019-05-13T08:10:48.544Z,914.37
2019-05-13T08:12:04.365Z,914.37
2019-05-13T08:12:51.665Z,914.37
2019-05-13T08:13:48.463Z,914.40
2019-05-13T08:14:48.382Z,914.40
2019-05-13T08:15:48.351Z,914.41
2019-05-13T08:16:48.311Z,914.47
2019-05-13T08:17:48.350Z,914.44
2019-05-13T08:18:48.369Z,914.48
2019-05-13T08:19:48.204Z,914.47
2019-05-13T08:20:48.172Z,914.50
2019-05-13T08:21:48.110Z,914.46
2019-05-13T08:22:48.102Z,914.49
2019-05-13T08:23:48.044Z,914.47
2019-05-13T08:24:50.963Z,914.49
2019-05-13T08:25:47.968Z,914.49
2019-05-13T08:26:50.109Z,914.50
2019-05-13T08:27:47.909Z,914.50
2019-05-13T08:29:00.453Z,914.53
2019-05-13T08:29:47.852Z,914.51
2019-05-13T08:30:47.870Z,914.46
2019-05-13T08:31:47.772Z,914.49
2019-05-13T08:32:47.738Z,914.47
2019-05-13T08:33:47.686Z,914.48
2019-05-13T08:34:52.587Z,914.49
2019-05-13T08:35:52.796Z,914.49
2019-05-13T08:36:47.598Z,914.51
2019-05-13T08:37:47.562Z,914.51
2019-05-13T08:38:47.508Z,914.53
2019-05-13T08:39:47.467Z,914.49
2019-05-13T08:40:51.628Z,914.54
2019-05-13T08:41:47.399Z,914.54
2019-05-13T08:42:47.391Z,914.59
2019-05-13T08:43:47.347Z,914.56
2019-05-13T08:44:47.296Z,914.59
2019-05-13T08:45:47.266Z,914.62
2019-05-13T08:46:47.392Z,914.63
2019-05-13T08:47:47.184Z,914.61
2019-05-13T08:48:47.148Z,914.63
2019-05-13T08:49:47.141Z,914.63
2019-05-13T08:50:47.103Z,914.60
2019-05-13T08:51:47.060Z,914.60
2019-05-13T08:52:47.023Z,914.61
2019-05-13T08:53:46.978Z,914.63
2019-05-13T08:54:46.937Z,914.61
2019-05-13T08:55:46.921Z,914.60
2019-05-13T08:56:46.882Z,914.62
2019-05-13T08:57:47.049Z,914.62
2019-05-13T08:58:46.789Z,914.63
2019-05-13T08:59:46.770Z,914.63
2019-05-13T09:00:46.795Z,914.60
2019-05-13T09:01:46.679Z,914.58
2019-05-13T09:02:46.670Z,914.57
2019-05-13T09:03:46.776Z,914.55
2019-05-13T09:04:46.585Z,914.58
2019-05-13T09:05:46.542Z,914.55
2019-05-13T09:06:46.506Z,914.61
2019-05-13T09:07:46.491Z,914.58
2019-05-13T09:08:46.452Z,914.62
2019-05-13T09:09:46.404Z,914.61
2019-05-13T09:10:46.365Z,914.61
2019-05-13T09:11:46.343Z,914.62
2019-05-13T09:12:46.307Z,914.62
2019-05-13T09:13:46.265Z,914.62
2019-05-13T09:14:47.244Z,914.63
2019-05-13T09:15:46.184Z,914.67
2019-05-13T09:16:46.144Z,914.66
2019-05-13T09:17:46.135Z,914.66
2019-05-13T09:18:46.108Z,914.67
2019-05-13T09:19:46.062Z,914.70
2019-05-13T09:20:46.170Z,914.74
2019-05-13T09:21:45.992Z,914.76
2019-05-13T09:22:45.958Z,914.75
2019-05-13T09:23:45.898Z,914.78
2019-05-13T09:24:45.859Z,914.82
2019-05-13T09:25:45.841Z,914.82
2019-05-13T09:26:45.978Z,914.86
2019-05-13T09:27:45.778Z,914.83
2019-05-13T09:28:45.736Z,914.84
2019-05-13T09:29:45.680Z,914.85
2019-05-13T09:30:45.666Z,914.90
2019-05-13T09:31:45.608Z,914.91
2019-05-13T09:32:51.419Z,914.95
2019-05-13T09:33:45.560Z,914.98
2019-05-13T09:34:45.500Z,915.00
2019-05-13T09:35:45.488Z,915.00
2019-05-13T09:36:45.442Z,914.98
2019-05-13T09:37:45.417Z,914.99
2019-05-13T09:38:47.126Z,915.02
2019-05-13T09:39:45.325Z,915.01
2019-05-13T09:40:45.304Z,915.03
2019-05-13T09:41:45.246Z,915.04
2019-05-13T09:42:51.116Z,915.08
2019-05-13T09:43:45.231Z,915.10
2019-05-13T09:44:45.160Z,915.08
2019-05-13T09:45:45.123Z,915.11
2019-05-13T09:46:45.089Z,915.19
2019-05-13T09:47:45.065Z,915.17
2019-05-13T09:48:45.019Z,915.18
2019-05-13T09:49:44.960Z,915.23
2019-05-13T09:50:44.973Z,915.25
2019-05-13T09:51:44.900Z,915.22
2019-05-13T09:52:44.873Z,915.27
2019-05-13T09:53:44.853Z,915.31
2019-05-13T09:54:44.808Z,915.39
2019-05-13T09:55:44.748Z,915.34
2019-05-13T09:56:44.745Z,915.32
2019-05-13T09:57:44.676Z,915.35
2019-05-13T09:58:44.667Z,915.42
2019-05-13T09:59:44.627Z,915.43
2019-05-13T10:00:44.573Z,915.38
2019-05-13T10:01:44.542Z,915.38
2019-05-13T10:02:44.523Z,915.40
2019-05-13T10:03:53.797Z,915.44
2019-05-13T10:04:44.451Z,915.49
2019-05-13T10:05:46.046Z,915.43
2019-05-13T10:06:44.358Z,915.40
2019-05-13T10:07:44.349Z,915.46
2019-05-13T10:08:44.294Z,915.43
2019-05-13T10:09:48.107Z,915.40
2019-05-13T10:10:44.250Z,915.36
2019-05-13T10:11:44.218Z,915.42
2019-05-13T10:12:44.169Z,915.52
2019-05-13T10:13:44.118Z,915.48
2019-05-13T10:14:44.102Z,915.49
2019-05-13T10:15:48.527Z,915.47
2019-05-13T10:16:44.246Z,915.43
2019-05-13T10:17:44.000Z,915.42
2019-05-13T10:18:43.950Z,915.51
2019-05-13T10:19:43.908Z,915.54
2019-05-13T10:20:43.892Z,915.46
2019-05-13T10:21:43.862Z,915.51
2019-05-13T10:22:43.862Z,915.44
2019-05-13T10:23:43.784Z,915.40
2019-05-13T10:24:43.790Z,915.44
2019-05-13T10:25:43.708Z,915.55
2019-05-13T10:26:43.702Z,915.55
2019-05-13T10:27:43.681Z,915.49
2019-05-13T10:28:43.632Z,915.50
2019-05-13T10:29:43.580Z,915.50
2019-05-13T10:30:43.867Z,915.70
2019-05-13T10:31:43.536Z,915.77
2019-05-13T10:32:43.617Z,915.64
2019-05-13T10:33:51.421Z,915.61
2019-05-13T10:34:43.443Z,915.60
2019-05-13T10:35:43.404Z,915.63
2019-05-13T10:36:43.391Z,915.67
2019-05-13T10:37:43.359Z,915.89
2019-05-13T10:38:43.300Z,915.91
2019-05-13T10:39:51.106Z,915.91
2019-05-13T10:40:43.438Z,915.84
2019-05-13T10:41:43.224Z,915.84
2019-05-13T10:42:43.403Z,915.90
2019-05-13T10:43:44.335Z,915.96
2019-05-13T10:44:43.128Z,915.97
2019-05-13T10:45:43.251Z,916.04
2019-05-13T10:46:43.082Z,916.03
2019-05-13T10:47:43.037Z,916.05
2019-05-13T10:48:43.017Z,916.07
2019-05-13T10:49:42.992Z,916.05
2019-05-13T10:50:42.950Z,916.06
2019-05-13T10:51:43.071Z,916.11
2019-05-13T10:52:42.894Z,916.17
2019-05-13T10:53:42.959Z,916.22
2019-05-13T10:54:42.805Z,916.19
2019-05-13T10:55:42.797Z,916.26
2019-05-13T10:56:43.217Z,916.31
2019-05-13T10:57:42.863Z,916.37
2019-05-13T10:58:42.941Z,916.37
2019-05-13T10:59:42.661Z,916.32
2019-05-13T11:00:42.632Z,916.33
2019-05-13T11:01:42.842Z,916.22
2019-05-13T11:02:42.570Z,916.11
2019-05-13T11:03:42.934Z,916.13
2019-05-13T11:04:42.522Z,916.06
2019-05-13T11:05:44.783Z,916.10
2019-05-13T11:06:42.467Z,916.10
2019-05-13T11:07:42.437Z,916.15
2019-05-13T11:08:43.316Z,916.35
2019-05-13T11:09:42.377Z,916.40
2019-05-13T11:10:42.349Z,916.42
2019-05-13T11:11:42.295Z,916.36
2019-05-13T11:12:42.291Z,916.32
2019-05-13T11:13:58.039Z,916.27
2019-05-13T11:14:46.681Z,916.26
2019-05-13T11:15:44.892Z,916.30
2019-05-13T11:16:42.775Z,916.27
2019-05-13T11:17:42.780Z,916.33
2019-05-13T11:18:42.089Z,916.48
2019-05-13T11:19:42.062Z,916.65
2019-05-13T11:20:42.135Z,916.77
2019-05-13T11:21:43.390Z,916.86
2019-05-13T11:22:42.434Z,916.92
2019-05-13T11:23:41.996Z,916.93
2019-05-13T11:24:43.233Z,916.95
2019-05-13T11:25:42.814Z,916.95
2019-05-13T11:26:42.009Z,916.98
2019-05-13T11:29:42.554Z,917.11
2019-05-13T11:30:42.517Z,917.11
2019-05-13T11:31:43.050Z,917.11
2019-05-13T11:32:42.842Z,917.13
2019-05-13T11:33:42.617Z,917.21
2019-05-13T11:34:42.380Z,917.16
2019-05-13T11:35:42.365Z,917.17
2019-05-13T11:36:43.421Z,917.18
2019-05-13T11:37:43.530Z,917.17
2019-05-13T11:38:43.327Z,917.15
2019-05-13T11:39:42.843Z,917.15
2019-05-13T11:40:42.239Z,917.19
2019-05-13T11:41:42.771Z,917.24
2019-05-13T11:42:43.089Z,917.26
2019-05-13T11:43:42.148Z,917.21
2019-05-13T11:44:43.013Z,917.22
2019-05-13T11:45:42.211Z,917.29
2019-05-13T11:46:42.707Z,917.31
2019-05-13T11:47:42.049Z,917.31
2019-05-13T11:48:42.754Z,917.29
2019-05-13T11:49:42.591Z,917.24
2019-05-13T11:50:44.164Z,917.29
2019-05-13T11:51:42.611Z,917.26
2019-05-13T11:52:42.821Z,917.31
2019-05-13T11:53:41.901Z,917.27
2019-05-13T11:54:42.470Z,917.29
2019-05-13T11:55:42.436Z,917.24
2019-05-13T11:56:48.929Z,917.25
2019-05-13T11:57:44.399Z,917.28
2019-05-13T11:58:43.117Z,917.27
2019-05-13T12:00:42.718Z,917.29
2019-05-13T12:01:42.601Z,917.30
2019-05-13T12:02:42.456Z,917.33
2019-05-13T12:03:43.434Z,917.35
2019-05-13T12:04:43.156Z,917.35
2019-05-13T12:05:42.169Z,917.23
2019-05-13T12:06:47.904Z,917.06
2019-05-13T12:07:42.092Z,916.92
2019-05-13T12:08:49.852Z,916.84
2019-05-13T12:09:41.544Z,916.84
2019-05-13T12:10:43.943Z,916.85
2019-05-13T12:11:41.579Z,916.88
2019-05-13T12:12:43.949Z,916.90
2019-05-13T12:13:42.631Z,916.91
2019-05-13T12:14:56.760Z,916.93
2019-05-13T12:15:48.811Z,916.95
2019-05-13T12:16:42.296Z,916.94
2019-05-13T12:17:42.785Z,916.97
2019-05-13T12:18:43.725Z,916.93
2019-05-13T12:19:41.813Z,916.92
2019-05-13T12:20:42.741Z,916.91
2019-05-13T12:21:45.926Z,916.96
2019-05-13T12:22:42.628Z,916.98
2019-05-13T12:23:42.780Z,916.95
2019-05-13T12:24:42.244Z,916.92
2019-05-13T12:25:43.743Z,916.91
2019-05-13T12:26:43.511Z,916.90
2019-05-13T12:27:41.916Z,916.91
2019-05-13T12:28:42.242Z,916.95
2019-05-13T12:29:42.942Z,916.97
2019-05-13T12:30:41.815Z,916.97
2019-05-13T12:31:41.105Z,916.95
2019-05-13T12:32:43.762Z,916.98
2019-05-13T12:33:44.045Z,916.97
2019-05-13T12:34:45.605Z,916.91
2019-05-13T12:35:41.033Z,916.89